sensor_id;sensor_type;location;lat;lon;timestamp;temperature;humidity
42913;DHT22;50720;54.324;18.558;2023-09-30T00:02:01;18.20;99.90
42913;DHT22;50720;54.324;18.558;2023-09-30T00:04:50;18.20;99.90
42913;DHT22;50720;54.324;18.558;2023-09-30T00:07:37;18.20;99.90
42913;DHT22;50720;54.324;18.558;2023-09-30T00:10:24;18.30;99.90
42913;DHT22;50720;54.324;18.558;2023-09-30T00:13:11;18.30;99.90
42913;DHT22;50720;54.324;18.558;2023-09-30T00:15:58;18.30;99.90
42913;DHT22;50720;54.324;18.558;2023-09-30T00:18:46;18.40;99.90
42913;DHT22;50720;54.324;18.558;2023-09-30T00:21:34;18.50;99.90
42913;DHT22;50720;54.324;18.558;2023-09-30T00:24:21;18.50;99.90
42913;DHT22;50720;54.324;18.558;2023-09-30T00:27:09;18.50;24.60
42913;DHT22;50720;54.324;18.558;2023-09-30T00:29:55;18.60;20.00
42913;DHT22;50720;54.324;18.558;2023-09-30T00:32:43;18.60;2.10
42913;DHT22;50720;54.324;18.558;2023-09-30T00:35:32;18.60;1.00
42913;DHT22;50720;54.324;18.558;2023-09-30T00:38:21;18.70;1.00
42913;DHT22;50720;54.324;18.558;2023-09-30T00:41:08;18.70;99.90
42913;DHT22;50720;54.324;18.558;2023-09-30T00:43:55;18.70;99.90
42913;DHT22;50720;54.324;18.558;2023-09-30T00:46:42;18.80;99.90
42913;DHT22;50720;54.324;18.558;2023-09-30T00:49:30;18.80;99.90
42913;DHT22;50720;54.324;18.558;2023-09-30T00:52:18;18.90;99.90
42913;DHT22;50720;54.324;18.558;2023-09-30T00:55:07;18.90;99.90
42913;DHT22;50720;54.324;18.558;2023-09-30T00:57:55;18.90;99.90
42913;DHT22;50720;54.324;18.558;2023-09-30T01:00:42;19.00;99.90
42913;DHT22;50720;54.324;18.558;2023-09-30T01:03:30;18.90;99.90
42913;DHT22;50720;54.324;18.558;2023-09-30T01:06:17;19.00;99.90
42913;DHT22;50720;54.324;18.558;2023-09-30T01:09:04;19.00;99.90
42913;DHT22;50720;54.324;18.558;2023-09-30T01:11:53;18.90;99.90
42913;DHT22;50720;54.324;18.558;2023-09-30T01:14:40;18.90;99.90
42913;DHT22;50720;54.324;18.558;2023-09-30T01:17:28;18.90;99.90
42913;DHT22;50720;54.324;18.558;2023-09-30T01:20:15;18.90;99.90
42913;DHT22;50720;54.324;18.558;2023-09-30T01:23:09;18.80;99.90
42913;DHT22;50720;54.324;18.558;2023-09-30T01:25:58;18.80;99.90
42913;DHT22;50720;54.324;18.558;2023-09-30T01:28:49;18.80;99.90
42913;DHT22;50720;54.324;18.558;2023-09-30T01:31:37;18.80;99.90
42913;DHT22;50720;54.324;18.558;2023-09-30T01:34:25;18.80;99.90
42913;DHT22;50720;54.324;18.558;2023-09-30T01:37:11;18.70;99.90
42913;DHT22;50720;54.324;18.558;2023-09-30T01:40:01;18.60;99.90
42913;DHT22;50720;54.324;18.558;2023-09-30T01:42:49;18.70;99.90
42913;DHT22;50720;54.324;18.558;2023-09-30T01:45:37;18.60;99.90
42913;DHT22;50720;54.324;18.558;2023-09-30T01:48:24;18.50;1.00
42913;DHT22;50720;54.324;18.558;2023-09-30T01:51:11;18.50;1.00
42913;DHT22;50720;54.324;18.558;2023-09-30T01:53:58;18.50;1.00
42913;DHT22;50720;54.324;18.558;2023-09-30T01:56:46;18.50;1.00
42913;DHT22;50720;54.324;18.558;2023-09-30T01:59:34;18.50;11.10
42913;DHT22;50720;54.324;18.558;2023-09-30T02:02:22;18.50;65.50
42913;DHT22;50720;54.324;18.558;2023-09-30T02:05:09;18.30;99.90
42913;DHT22;50720;54.324;18.558;2023-09-30T02:07:56;18.30;99.90
42913;DHT22;50720;54.324;18.558;2023-09-30T02:10:43;18.30;99.90
42913;DHT22;50720;54.324;18.558;2023-09-30T02:13:33;18.30;99.90
42913;DHT22;50720;54.324;18.558;2023-09-30T02:16:20;18.20;99.90
42913;DHT22;50720;54.324;18.558;2023-09-30T02:19:08;18.20;99.90
42913;DHT22;50720;54.324;18.558;2023-09-30T02:21:56;18.10;99.90
42913;DHT22;50720;54.324;18.558;2023-09-30T02:24:43;18.00;99.90
42913;DHT22;50720;54.324;18.558;2023-09-30T02:27:31;18.00;99.90
42913;DHT22;50720;54.324;18.558;2023-09-30T02:30:20;18.00;99.90
42913;DHT22;50720;54.324;18.558;2023-09-30T02:33:06;17.90;99.90
42913;DHT22;50720;54.324;18.558;2023-09-30T02:35:54;17.90;99.90
42913;DHT22;50720;54.324;18.558;2023-09-30T02:38:40;18.00;99.90
42913;DHT22;50720;54.324;18.558;2023-09-30T02:41:28;18.00;99.90
42913;DHT22;50720;54.324;18.558;2023-09-30T02:44:15;18.00;99.90
42913;DHT22;50720;54.324;18.558;2023-09-30T02:47:04;18.00;99.90
42913;DHT22;50720;54.324;18.558;2023-09-30T02:49:51;18.10;99.90
42913;DHT22;50720;54.324;18.558;2023-09-30T02:52:39;18.10;99.90
42913;DHT22;50720;54.324;18.558;2023-09-30T02:55:26;18.10;99.90
42913;DHT22;50720;54.324;18.558;2023-09-30T02:58:13;18.10;99.90
42913;DHT22;50720;54.324;18.558;2023-09-30T03:01:00;18.20;99.90
42913;DHT22;50720;54.324;18.558;2023-09-30T03:03:48;18.10;99.90
42913;DHT22;50720;54.324;18.558;2023-09-30T03:06:36;18.20;99.90
42913;DHT22;50720;54.324;18.558;2023-09-30T03:09:24;18.20;99.90
42913;DHT22;50720;54.324;18.558;2023-09-30T03:12:12;18.20;99.90
42913;DHT22;50720;54.324;18.558;2023-09-30T03:14:59;18.20;99.90
42913;DHT22;50720;54.324;18.558;2023-09-30T03:17:49;18.20;99.90
42913;DHT22;50720;54.324;18.558;2023-09-30T03:20:38;18.20;99.90
42913;DHT22;50720;54.324;18.558;2023-09-30T03:23:25;18.20;99.90
42913;DHT22;50720;54.324;18.558;2023-09-30T03:26:16;18.20;99.90
42913;DHT22;50720;54.324;18.558;2023-09-30T03:29:03;18.20;99.90
42913;DHT22;50720;54.324;18.558;2023-09-30T03:31:51;18.20;99.90
42913;DHT22;50720;54.324;18.558;2023-09-30T03:34:37;18.20;99.90
42913;DHT22;50720;54.324;18.558;2023-09-30T03:37:31;18.20;99.90
42913;DHT22;50720;54.324;18.558;2023-09-30T03:40:21;18.30;99.90
42913;DHT22;50720;54.324;18.558;2023-09-30T03:43:13;18.30;99.90
42913;DHT22;50720;54.324;18.558;2023-09-30T03:46:01;18.30;99.90
42913;DHT22;50720;54.324;18.558;2023-09-30T03:48:48;18.00;99.90
42913;DHT22;50720;54.324;18.558;2023-09-30T03:51:35;17.70;99.90
42913;DHT22;50720;54.324;18.558;2023-09-30T03:54:24;17.50;99.90
42913;DHT22;50720;54.324;18.558;2023-09-30T03:57:12;17.40;99.90
42913;DHT22;50720;54.324;18.558;2023-09-30T04:00:01;17.20;99.90
42913;DHT22;50720;54.324;18.558;2023-09-30T04:02:51;17.00;99.90
42913;DHT22;50720;54.324;18.558;2023-09-30T04:05:43;17.00;99.90
42913;DHT22;50720;54.324;18.558;2023-09-30T04:08:30;17.00;99.90
42913;DHT22;50720;54.324;18.558;2023-09-30T04:11:20;17.00;99.90
42913;DHT22;50720;54.324;18.558;2023-09-30T04:14:07;16.90;99.90
42913;DHT22;50720;54.324;18.558;2023-09-30T04:16:55;16.80;99.90
42913;DHT22;50720;54.324;18.558;2023-09-30T04:19:43;16.70;99.90
42913;DHT22;50720;54.324;18.558;2023-09-30T04:22:31;16.60;99.90
42913;DHT22;50720;54.324;18.558;2023-09-30T04:25:18;16.60;99.90
42913;DHT22;50720;54.324;18.558;2023-09-30T04:28:07;16.40;99.90
42913;DHT22;50720;54.324;18.558;2023-09-30T04:30:54;16.40;99.90
42913;DHT22;50720;54.324;18.558;2023-09-30T04:33:41;16.40;99.90
42913;DHT22;50720;54.324;18.558;2023-09-30T04:36:28;16.40;8.10
42913;DHT22;50720;54.324;18.558;2023-09-30T04:39:16;16.30;1.00
42913;DHT22;50720;54.324;18.558;2023-09-30T04:42:03;16.30;99.90
42913;DHT22;50720;54.324;18.558;2023-09-30T04:44:52;16.30;99.90
42913;DHT22;50720;54.324;18.558;2023-09-30T04:47:38;16.30;99.90
42913;DHT22;50720;54.324;18.558;2023-09-30T04:50:26;16.30;99.90
42913;DHT22;50720;54.324;18.558;2023-09-30T04:53:14;16.20;99.90
42913;DHT22;50720;54.324;18.558;2023-09-30T04:56:03;16.20;74.50
42913;DHT22;50720;54.324;18.558;2023-09-30T04:58:50;16.20;78.00
42913;DHT22;50720;54.324;18.558;2023-09-30T05:01:39;16.20;73.70
42913;DHT22;50720;54.324;18.558;2023-09-30T05:04:25;16.10;82.40
42913;DHT22;50720;54.324;18.558;2023-09-30T05:07:12;16.10;99.90
42913;DHT22;50720;54.324;18.558;2023-09-30T05:09:59;16.10;25.20
42913;DHT22;50720;54.324;18.558;2023-09-30T05:12:50;15.90;1.00
42913;DHT22;50720;54.324;18.558;2023-09-30T05:15:39;15.90;1.00
42913;DHT22;50720;54.324;18.558;2023-09-30T05:18:28;15.90;1.00
42913;DHT22;50720;54.324;18.558;2023-09-30T05:21:15;15.90;1.00
42913;DHT22;50720;54.324;18.558;2023-09-30T05:24:03;16.00;1.00
42913;DHT22;50720;54.324;18.558;2023-09-30T05:26:50;15.90;1.00
42913;DHT22;50720;54.324;18.558;2023-09-30T05:29:38;15.80;99.90
42913;DHT22;50720;54.324;18.558;2023-09-30T05:32:25;15.80;99.90
42913;DHT22;50720;54.324;18.558;2023-09-30T05:35:14;15.80;99.90
42913;DHT22;50720;54.324;18.558;2023-09-30T05:38:02;15.70;99.90
42913;DHT22;50720;54.324;18.558;2023-09-30T05:40:51;15.60;99.90
42913;DHT22;50720;54.324;18.558;2023-09-30T05:43:39;15.50;99.90
42913;DHT22;50720;54.324;18.558;2023-09-30T05:46:30;15.50;99.90
42913;DHT22;50720;54.324;18.558;2023-09-30T05:49:16;15.50;99.90
42913;DHT22;50720;54.324;18.558;2023-09-30T05:52:06;15.50;99.90
42913;DHT22;50720;54.324;18.558;2023-09-30T05:54:53;15.50;99.90
42913;DHT22;50720;54.324;18.558;2023-09-30T05:57:41;15.50;99.90
42913;DHT22;50720;54.324;18.558;2023-09-30T06:00:29;15.50;99.90
42913;DHT22;50720;54.324;18.558;2023-09-30T06:03:16;15.50;99.90
42913;DHT22;50720;54.324;18.558;2023-09-30T06:06:03;15.50;99.90
42913;DHT22;50720;54.324;18.558;2023-09-30T06:08:59;15.50;99.90
42913;DHT22;50720;54.324;18.558;2023-09-30T06:11:46;15.50;99.90
42913;DHT22;50720;54.324;18.558;2023-09-30T06:14:34;15.50;99.90
42913;DHT22;50720;54.324;18.558;2023-09-30T06:17:20;15.50;99.90
42913;DHT22;50720;54.324;18.558;2023-09-30T06:20:09;15.50;99.90
42913;DHT22;50720;54.324;18.558;2023-09-30T06:23:01;15.50;99.90
42913;DHT22;50720;54.324;18.558;2023-09-30T06:25:50;15.50;99.90
42913;DHT22;50720;54.324;18.558;2023-09-30T06:28:38;15.50;99.90
42913;DHT22;50720;54.324;18.558;2023-09-30T06:31:26;15.60;99.90
42913;DHT22;50720;54.324;18.558;2023-09-30T06:34:14;15.50;99.90
42913;DHT22;50720;54.324;18.558;2023-09-30T06:37:02;15.50;99.90
42913;DHT22;50720;54.324;18.558;2023-09-30T06:39:49;15.50;99.90
42913;DHT22;50720;54.324;18.558;2023-09-30T06:42:37;15.50;99.90
42913;DHT22;50720;54.324;18.558;2023-09-30T06:45:25;15.50;62.10
42913;DHT22;50720;54.324;18.558;2023-09-30T06:48:13;15.60;48.00
42913;DHT22;50720;54.324;18.558;2023-09-30T06:51:01;15.60;55.90
42913;DHT22;50720;54.324;18.558;2023-09-30T06:53:48;15.60;64.50
42913;DHT22;50720;54.324;18.558;2023-09-30T06:56:35;15.70;1.00
42913;DHT22;50720;54.324;18.558;2023-09-30T06:59:24;15.70;1.00
42913;DHT22;50720;54.324;18.558;2023-09-30T07:02:11;15.70;99.90
42913;DHT22;50720;54.324;18.558;2023-09-30T07:04:58;15.80;99.90
42913;DHT22;50720;54.324;18.558;2023-09-30T07:07:45;15.80;99.90
42913;DHT22;50720;54.324;18.558;2023-09-30T07:10:32;15.70;99.90
42913;DHT22;50720;54.324;18.558;2023-09-30T07:13:18;15.80;99.90
42913;DHT22;50720;54.324;18.558;2023-09-30T07:16:08;16.00;99.90
42913;DHT22;50720;54.324;18.558;2023-09-30T07:18:55;16.00;99.90
42913;DHT22;50720;54.324;18.558;2023-09-30T07:21:43;16.00;99.90
42913;DHT22;50720;54.324;18.558;2023-09-30T07:24:31;16.00;99.90
42913;DHT22;50720;54.324;18.558;2023-09-30T07:27:19;16.10;99.90
42913;DHT22;50720;54.324;18.558;2023-09-30T07:30:07;16.10;99.90
42913;DHT22;50720;54.324;18.558;2023-09-30T07:32:56;16.10;99.90
42913;DHT22;50720;54.324;18.558;2023-09-30T07:35:44;16.30;99.90
42913;DHT22;50720;54.324;18.558;2023-09-30T07:38:31;16.30;99.90
42913;DHT22;50720;54.324;18.558;2023-09-30T07:41:19;16.40;99.90
42913;DHT22;50720;54.324;18.558;2023-09-30T07:44:06;16.40;21.80
42913;DHT22;50720;54.324;18.558;2023-09-30T07:46:54;16.40;10.10
42913;DHT22;50720;54.324;18.558;2023-09-30T07:49:43;16.60;13.40
42913;DHT22;50720;54.324;18.558;2023-09-30T07:52:29;16.60;16.40
42913;DHT22;50720;54.324;18.558;2023-09-30T07:55:17;16.80;1.00
42913;DHT22;50720;54.324;18.558;2023-09-30T07:58:04;16.70;1.00
42913;DHT22;50720;54.324;18.558;2023-09-30T08:00:53;16.70;1.00
42913;DHT22;50720;54.324;18.558;2023-09-30T08:03:40;16.50;1.00
42913;DHT22;50720;54.324;18.558;2023-09-30T08:06:29;16.20;15.10
42913;DHT22;50720;54.324;18.558;2023-09-30T08:09:16;16.30;1.00
42913;DHT22;50720;54.324;18.558;2023-09-30T08:12:04;16.30;1.00
42913;DHT22;50720;54.324;18.558;2023-09-30T08:14:51;16.50;1.00
42913;DHT22;50720;54.324;18.558;2023-09-30T08:17:38;16.50;1.00
42913;DHT22;50720;54.324;18.558;2023-09-30T08:20:25;16.60;99.90
42913;DHT22;50720;54.324;18.558;2023-09-30T08:23:14;16.70;99.90
42913;DHT22;50720;54.324;18.558;2023-09-30T08:26:01;16.70;99.90
42913;DHT22;50720;54.324;18.558;2023-09-30T08:28:50;16.70;99.90
42913;DHT22;50720;54.324;18.558;2023-09-30T08:31:37;16.80;99.90
42913;DHT22;50720;54.324;18.558;2023-09-30T08:34:24;16.80;99.90
42913;DHT22;50720;54.324;18.558;2023-09-30T08:37:11;17.20;99.90
42913;DHT22;50720;54.324;18.558;2023-09-30T08:39:59;17.10;99.90
42913;DHT22;50720;54.324;18.558;2023-09-30T08:42:48;17.30;1.00
42913;DHT22;50720;54.324;18.558;2023-09-30T08:45:39;17.30;1.00
42913;DHT22;50720;54.324;18.558;2023-09-30T08:48:30;17.20;1.00
42913;DHT22;50720;54.324;18.558;2023-09-30T08:51:19;17.20;1.00
42913;DHT22;50720;54.324;18.558;2023-09-30T08:54:06;17.20;1.00
42913;DHT22;50720;54.324;18.558;2023-09-30T08:56:55;17.40;99.90
42913;DHT22;50720;54.324;18.558;2023-09-30T08:59:43;17.40;99.90
42913;DHT22;50720;54.324;18.558;2023-09-30T09:02:57;17.40;99.90
42913;DHT22;50720;54.324;18.558;2023-09-30T09:05:44;17.60;99.90
42913;DHT22;50720;54.324;18.558;2023-09-30T09:08:31;17.60;99.90
42913;DHT22;50720;54.324;18.558;2023-09-30T09:11:18;17.60;99.90
42913;DHT22;50720;54.324;18.558;2023-09-30T09:14:06;17.80;99.90
42913;DHT22;50720;54.324;18.558;2023-09-30T09:16:55;17.70;99.90
42913;DHT22;50720;54.324;18.558;2023-09-30T09:19:42;17.70;99.90
42913;DHT22;50720;54.324;18.558;2023-09-30T09:22:38;17.70;99.90
42913;DHT22;50720;54.324;18.558;2023-09-30T09:25:25;17.70;99.90
42913;DHT22;50720;54.324;18.558;2023-09-30T09:28:15;17.80;99.90
42913;DHT22;50720;54.324;18.558;2023-09-30T09:31:19;17.80;99.90
42913;DHT22;50720;54.324;18.558;2023-09-30T09:34:14;17.80;99.90
42913;DHT22;50720;54.324;18.558;2023-09-30T09:37:13;18.00;63.30
42913;DHT22;50720;54.324;18.558;2023-09-30T09:40:00;18.00;39.20
42913;DHT22;50720;54.324;18.558;2023-09-30T09:42:50;17.90;8.50
42913;DHT22;50720;54.324;18.558;2023-09-30T09:45:39;18.00;10.10
42913;DHT22;50720;54.324;18.558;2023-09-30T09:48:28;18.10;1.00
42913;DHT22;50720;54.324;18.558;2023-09-30T09:51:16;18.20;1.00
42913;DHT22;50720;54.324;18.558;2023-09-30T09:54:05;18.20;1.00
42913;DHT22;50720;54.324;18.558;2023-09-30T09:56:53;18.30;99.90
42913;DHT22;50720;54.324;18.558;2023-09-30T09:59:43;18.10;99.90
42913;DHT22;50720;54.324;18.558;2023-09-30T10:02:32;18.00;99.90
42913;DHT22;50720;54.324;18.558;2023-09-30T10:05:22;17.80;1.00
42913;DHT22;50720;54.324;18.558;2023-09-30T10:08:14;18.00;1.00
42913;DHT22;50720;54.324;18.558;2023-09-30T10:11:03;18.00;1.00
42913;DHT22;50720;54.324;18.558;2023-09-30T10:13:51;18.10;99.90
42913;DHT22;50720;54.324;18.558;2023-09-30T10:16:48;18.10;99.90
42913;DHT22;50720;54.324;18.558;2023-09-30T10:19:36;18.20;99.90
42913;DHT22;50720;54.324;18.558;2023-09-30T10:22:45;18.20;99.90
42913;DHT22;50720;54.324;18.558;2023-09-30T10:25:36;18.10;99.90
42913;DHT22;50720;54.324;18.558;2023-09-30T10:28:35;18.20;99.90
42913;DHT22;50720;54.324;18.558;2023-09-30T10:31:23;18.30;99.90
42913;DHT22;50720;54.324;18.558;2023-09-30T10:34:21;18.80;99.90
42913;DHT22;50720;54.324;18.558;2023-09-30T10:37:22;18.80;99.90
42913;DHT22;50720;54.324;18.558;2023-09-30T10:40:26;19.20;99.90
42913;DHT22;50720;54.324;18.558;2023-09-30T10:43:29;19.80;99.90
42913;DHT22;50720;54.324;18.558;2023-09-30T10:46:32;19.70;99.90
42913;DHT22;50720;54.324;18.558;2023-09-30T10:49:33;19.60;99.90
42913;DHT22;50720;54.324;18.558;2023-09-30T10:52:22;19.80;95.00
42913;DHT22;50720;54.324;18.558;2023-09-30T10:55:11;19.80;62.30
42913;DHT22;50720;54.324;18.558;2023-09-30T10:57:58;19.70;78.70
42913;DHT22;50720;54.324;18.558;2023-09-30T11:00:52;19.80;76.60
42913;DHT22;50720;54.324;18.558;2023-09-30T11:03:40;20.50;34.10
42913;DHT22;50720;54.324;18.558;2023-09-30T11:06:27;20.80;1.00
42913;DHT22;50720;54.324;18.558;2023-09-30T11:09:16;20.50;99.90
42913;DHT22;50720;54.324;18.558;2023-09-30T11:12:13;20.90;99.90
42913;DHT22;50720;54.324;18.558;2023-09-30T11:15:02;21.50;99.90
42913;DHT22;50720;54.324;18.558;2023-09-30T11:17:49;21.10;68.00
42913;DHT22;50720;54.324;18.558;2023-09-30T11:20:37;21.00;7.20
42913;DHT22;50720;54.324;18.558;2023-09-30T11:23:24;20.10;1.00
42913;DHT22;50720;54.324;18.558;2023-09-30T11:26:12;20.00;1.00
42913;DHT22;50720;54.324;18.558;2023-09-30T11:29:08;20.10;1.00
42913;DHT22;50720;54.324;18.558;2023-09-30T11:31:56;20.70;1.00
42913;DHT22;50720;54.324;18.558;2023-09-30T11:34:45;21.40;1.00
42913;DHT22;50720;54.324;18.558;2023-09-30T11:37:32;20.90;1.00
42913;DHT22;50720;54.324;18.558;2023-09-30T11:40:19;20.50;99.90
42913;DHT22;50720;54.324;18.558;2023-09-30T11:43:09;19.60;99.90
42913;DHT22;50720;54.324;18.558;2023-09-30T11:46:08;19.90;99.90
42913;DHT22;50720;54.324;18.558;2023-09-30T11:48:57;19.90;99.90
42913;DHT22;50720;54.324;18.558;2023-09-30T11:51:45;20.90;99.90
42913;DHT22;50720;54.324;18.558;2023-09-30T11:54:33;21.40;99.90
42913;DHT22;50720;54.324;18.558;2023-09-30T11:57:22;21.60;53.70
42913;DHT22;50720;54.324;18.558;2023-09-30T12:00:10;21.60;1.00
42913;DHT22;50720;54.324;18.558;2023-09-30T12:03:01;22.10;1.00
42913;DHT22;50720;54.324;18.558;2023-09-30T12:05:48;21.90;1.00
42913;DHT22;50720;54.324;18.558;2023-09-30T12:08:36;20.80;1.00
42913;DHT22;50720;54.324;18.558;2023-09-30T12:11:23;20.50;1.00
42913;DHT22;50720;54.324;18.558;2023-09-30T12:14:11;20.60;1.00
42913;DHT22;50720;54.324;18.558;2023-09-30T12:16:59;21.10;1.00
42913;DHT22;50720;54.324;18.558;2023-09-30T12:19:47;21.80;1.00
42913;DHT22;50720;54.324;18.558;2023-09-30T12:22:35;22.30;1.00
42913;DHT22;50720;54.324;18.558;2023-09-30T12:25:23;23.00;1.00
42913;DHT22;50720;54.324;18.558;2023-09-30T12:28:11;23.00;99.90
42913;DHT22;50720;54.324;18.558;2023-09-30T12:30:59;22.40;99.90
42913;DHT22;50720;54.324;18.558;2023-09-30T12:33:48;22.00;99.90
42913;DHT22;50720;54.324;18.558;2023-09-30T12:36:38;21.80;99.90
42913;DHT22;50720;54.324;18.558;2023-09-30T12:39:26;21.70;99.90
42913;DHT22;50720;54.324;18.558;2023-09-30T12:42:15;21.00;99.90
42913;DHT22;50720;54.324;18.558;2023-09-30T12:45:03;20.60;99.90
42913;DHT22;50720;54.324;18.558;2023-09-30T12:47:51;19.50;99.90
42913;DHT22;50720;54.324;18.558;2023-09-30T12:50:39;17.90;99.90
42913;DHT22;50720;54.324;18.558;2023-09-30T12:53:27;19.10;99.90
42913;DHT22;50720;54.324;18.558;2023-09-30T12:56:15;19.50;99.90
42913;DHT22;50720;54.324;18.558;2023-09-30T12:59:02;20.10;99.90
42913;DHT22;50720;54.324;18.558;2023-09-30T13:01:49;20.10;99.90
42913;DHT22;50720;54.324;18.558;2023-09-30T13:04:36;20.60;99.90
42913;DHT22;50720;54.324;18.558;2023-09-30T13:07:28;21.00;99.90
42913;DHT22;50720;54.324;18.558;2023-09-30T13:10:16;21.10;99.90
42913;DHT22;50720;54.324;18.558;2023-09-30T13:13:04;21.00;99.90
42913;DHT22;50720;54.324;18.558;2023-09-30T13:15:51;21.30;99.90
42913;DHT22;50720;54.324;18.558;2023-09-30T13:18:38;20.50;99.90
42913;DHT22;50720;54.324;18.558;2023-09-30T13:21:25;21.60;99.90
42913;DHT22;50720;54.324;18.558;2023-09-30T13:24:12;22.10;99.90
42913;DHT22;50720;54.324;18.558;2023-09-30T13:27:00;21.60;99.90
42913;DHT22;50720;54.324;18.558;2023-09-30T13:29:48;20.80;99.90
42913;DHT22;50720;54.324;18.558;2023-09-30T13:32:35;20.80;99.90
42913;DHT22;50720;54.324;18.558;2023-09-30T13:35:22;20.80;99.90
42913;DHT22;50720;54.324;18.558;2023-09-30T13:38:10;21.30;99.90
42913;DHT22;50720;54.324;18.558;2023-09-30T13:40:57;21.30;99.90
42913;DHT22;50720;54.324;18.558;2023-09-30T13:43:47;21.80;99.90
42913;DHT22;50720;54.324;18.558;2023-09-30T13:46:35;22.20;99.90
42913;DHT22;50720;54.324;18.558;2023-09-30T13:49:22;21.50;99.90
42913;DHT22;50720;54.324;18.558;2023-09-30T13:52:09;21.00;99.90
42913;DHT22;50720;54.324;18.558;2023-09-30T13:54:56;21.20;99.90
42913;DHT22;50720;54.324;18.558;2023-09-30T13:57:43;21.20;99.90
42913;DHT22;50720;54.324;18.558;2023-09-30T14:00:32;20.80;99.90
42913;DHT22;50720;54.324;18.558;2023-09-30T14:03:19;20.20;99.90
42913;DHT22;50720;54.324;18.558;2023-09-30T14:06:10;20.20;99.90
42913;DHT22;50720;54.324;18.558;2023-09-30T14:08:58;20.00;99.90
42913;DHT22;50720;54.324;18.558;2023-09-30T14:11:45;20.10;99.90
42913;DHT22;50720;54.324;18.558;2023-09-30T14:14:33;19.70;99.90
42913;DHT22;50720;54.324;18.558;2023-09-30T14:17:22;19.20;99.90
42913;DHT22;50720;54.324;18.558;2023-09-30T14:20:10;19.00;99.90
42913;DHT22;50720;54.324;18.558;2023-09-30T14:22:57;18.50;1.00
42913;DHT22;50720;54.324;18.558;2023-09-30T14:25:54;18.40;1.00
42913;DHT22;50720;54.324;18.558;2023-09-30T14:28:41;18.30;1.00
42913;DHT22;50720;54.324;18.558;2023-09-30T14:31:29;18.10;1.00
42913;DHT22;50720;54.324;18.558;2023-09-30T14:34:17;18.50;28.20
42913;DHT22;50720;54.324;18.558;2023-09-30T14:37:04;18.50;36.80
42913;DHT22;50720;54.324;18.558;2023-09-30T14:39:51;19.10;18.40
42913;DHT22;50720;54.324;18.558;2023-09-30T14:42:38;19.90;1.00
42913;DHT22;50720;54.324;18.558;2023-09-30T14:45:26;20.30;1.00
42913;DHT22;50720;54.324;18.558;2023-09-30T14:48:13;19.90;1.00
42913;DHT22;50720;54.324;18.558;2023-09-30T14:51:02;19.80;1.00
42913;DHT22;50720;54.324;18.558;2023-09-30T14:53:50;18.80;1.00
42913;DHT22;50720;54.324;18.558;2023-09-30T14:56:36;18.80;1.00
42913;DHT22;50720;54.324;18.558;2023-09-30T14:59:24;18.60;1.00
42913;DHT22;50720;54.324;18.558;2023-09-30T15:02:11;18.40;1.00
42913;DHT22;50720;54.324;18.558;2023-09-30T15:04:58;18.00;28.60
42913;DHT22;50720;54.324;18.558;2023-09-30T15:07:46;17.70;99.90
42913;DHT22;50720;54.324;18.558;2023-09-30T15:10:34;17.50;99.90
42913;DHT22;50720;54.324;18.558;2023-09-30T15:13:22;17.40;1.00
42913;DHT22;50720;54.324;18.558;2023-09-30T15:16:15;17.50;1.00
42913;DHT22;50720;54.324;18.558;2023-09-30T15:19:03;17.50;1.00
42913;DHT22;50720;54.324;18.558;2023-09-30T15:21:50;17.60;1.00
42913;DHT22;50720;54.324;18.558;2023-09-30T15:24:38;17.50;1.00
42913;DHT22;50720;54.324;18.558;2023-09-30T15:27:25;17.50;1.00
42913;DHT22;50720;54.324;18.558;2023-09-30T15:30:13;17.50;3.30
42913;DHT22;50720;54.324;18.558;2023-09-30T15:33:00;17.20;99.90
42913;DHT22;50720;54.324;18.558;2023-09-30T15:35:47;17.20;99.90
42913;DHT22;50720;54.324;18.558;2023-09-30T15:38:35;17.10;99.90
42913;DHT22;50720;54.324;18.558;2023-09-30T15:41:24;17.10;99.90
42913;DHT22;50720;54.324;18.558;2023-09-30T15:44:11;17.20;1.00
42913;DHT22;50720;54.324;18.558;2023-09-30T15:46:59;17.10;1.00
42913;DHT22;50720;54.324;18.558;2023-09-30T15:49:45;17.00;11.90
42913;DHT22;50720;54.324;18.558;2023-09-30T15:52:33;16.90;99.90
42913;DHT22;50720;54.324;18.558;2023-09-30T15:55:21;16.80;99.90
42913;DHT22;50720;54.324;18.558;2023-09-30T15:58:09;16.70;99.90
42913;DHT22;50720;54.324;18.558;2023-09-30T16:00:56;16.70;1.00
42913;DHT22;50720;54.324;18.558;2023-09-30T16:03:43;16.60;1.00
42913;DHT22;50720;54.324;18.558;2023-09-30T16:06:30;16.60;1.00
42913;DHT22;50720;54.324;18.558;2023-09-30T16:09:17;16.50;6.60
42913;DHT22;50720;54.324;18.558;2023-09-30T16:12:05;16.40;94.70
42913;DHT22;50720;54.324;18.558;2023-09-30T16:14:53;16.40;99.90
42913;DHT22;50720;54.324;18.558;2023-09-30T16:17:41;16.30;99.90
42913;DHT22;50720;54.324;18.558;2023-09-30T16:20:27;16.20;99.90
42913;DHT22;50720;54.324;18.558;2023-09-30T16:23:15;16.10;99.90
42913;DHT22;50720;54.324;18.558;2023-09-30T16:26:02;16.10;99.90
42913;DHT22;50720;54.324;18.558;2023-09-30T16:28:50;16.00;99.90
42913;DHT22;50720;54.324;18.558;2023-09-30T16:31:38;15.90;99.90
42913;DHT22;50720;54.324;18.558;2023-09-30T16:34:26;15.80;99.90
42913;DHT22;50720;54.324;18.558;2023-09-30T16:37:12;15.80;99.90
42913;DHT22;50720;54.324;18.558;2023-09-30T16:40:00;15.70;1.00
42913;DHT22;50720;54.324;18.558;2023-09-30T16:42:47;15.70;1.00
42913;DHT22;50720;54.324;18.558;2023-09-30T16:45:35;15.70;1.00
42913;DHT22;50720;54.324;18.558;2023-09-30T16:48:23;15.60;70.70
42913;DHT22;50720;54.324;18.558;2023-09-30T16:51:11;15.50;99.90
42913;DHT22;50720;54.324;18.558;2023-09-30T16:53:58;15.60;99.90
42913;DHT22;50720;54.324;18.558;2023-09-30T16:56:45;15.60;99.90
42913;DHT22;50720;54.324;18.558;2023-09-30T16:59:32;15.50;99.90
42913;DHT22;50720;54.324;18.558;2023-09-30T17:02:19;15.50;99.90
42913;DHT22;50720;54.324;18.558;2023-09-30T17:05:08;15.50;99.90
42913;DHT22;50720;54.324;18.558;2023-09-30T17:07:56;15.50;99.90
42913;DHT22;50720;54.324;18.558;2023-09-30T17:10:43;15.40;1.00
42913;DHT22;50720;54.324;18.558;2023-09-30T17:13:30;15.40;1.00
42913;DHT22;50720;54.324;18.558;2023-09-30T17:16:18;15.30;7.10
42913;DHT22;50720;54.324;18.558;2023-09-30T17:19:05;15.30;99.90
42913;DHT22;50720;54.324;18.558;2023-09-30T17:21:54;15.30;99.90
42913;DHT22;50720;54.324;18.558;2023-09-30T17:24:41;15.20;99.90
42913;DHT22;50720;54.324;18.558;2023-09-30T17:27:28;15.20;99.90
42913;DHT22;50720;54.324;18.558;2023-09-30T17:30:15;15.20;99.90
42913;DHT22;50720;54.324;18.558;2023-09-30T17:33:03;15.10;99.90